Austin, Missouri
Current Conditions -  °F | °C
As of 3:53 PM on Sunday 25 Jan 2015 (Local Time) from KOJC Reporting Station
Overcast Overcast  
Wind Chill: -2°   Ceiling: 1800
Heat Index:   Visibility: 10mi
Dew Point:   Wind: 16mph
Humidity: 79%   Direction: 340°NNW
Pressure: 29.96"   Gusts: 24mph
Location:  38.5148°N, 94.3768°W
Report Text: KOJC 252153Z 34014G21KT 10SM OVC018 03/00 A2996 RMK AO2 PK WND 35026/2111 SLP149 T00330000
Loading
Personal Weather Stations






























Interactive Weather Map New forecast layout! Learn more

10-Day Weather Forecast

Advertisements
Track Severe Weather on mobile